createdAt,value
2019-04-10T00:00:37.351Z,11.02
2019-04-10T00:03:06.303Z,11.04
2019-04-10T00:05:34.904Z,10.99
2019-04-10T00:08:04.523Z,10.98
2019-04-10T00:10:34.031Z,11.01
2019-04-10T00:13:02.960Z,11.00
2019-04-10T00:15:32.682Z,11.00
2019-04-10T00:18:02.485Z,11.00
2019-04-10T00:20:32.192Z,11.02
2019-04-10T00:23:01.046Z,11.02
2019-04-10T00:25:29.727Z,11.05
2019-04-10T00:27:59.051Z,11.08
2019-04-10T00:30:27.740Z,11.09
2019-04-10T00:32:56.472Z,11.06
2019-04-10T00:35:25.566Z,11.00
2019-04-10T00:37:55.463Z,10.98
2019-04-10T00:40:24.135Z,10.96
2019-04-10T00:42:53.513Z,10.88
2019-04-10T00:45:22.394Z,10.85
2019-04-10T00:47:51.156Z,10.84
2019-04-10T00:50:20.969Z,10.73
2019-04-10T00:52:49.529Z,10.71
2019-04-10T00:55:18.165Z,10.63
2019-04-10T00:57:47.481Z,10.49
2019-04-10T01:00:16.991Z,10.55
2019-04-10T01:02:45.638Z,10.50
2019-04-10T01:05:15.191Z,10.55
2019-04-10T01:07:44.699Z,10.53
2019-04-10T01:10:14.447Z,10.49
2019-04-10T01:12:44.003Z,10.60
2019-04-10T01:15:12.753Z,10.63
2019-04-10T01:17:42.333Z,10.65
2019-04-10T01:20:11.356Z,10.54
2019-04-10T01:22:40.023Z,10.58
2019-04-10T01:25:08.642Z,10.55
2019-04-10T01:27:38.264Z,10.49
2019-04-10T01:30:08.636Z,10.50
2019-04-10T01:32:37.495Z,10.47
2019-04-10T01:35:07.821Z,10.55
2019-04-10T01:37:48.606Z,10.58
2019-04-10T01:40:08.422Z,10.58
2019-04-10T01:42:36.967Z,10.46
2019-04-10T01:45:07.233Z,10.47
2019-04-10T01:47:35.753Z,10.41
2019-04-10T01:50:06.397Z,10.44
2019-04-10T01:52:35.389Z,10.32
2019-04-10T01:55:18.139Z,10.37
2019-04-10T01:57:36.631Z,10.35
2019-04-10T02:00:08.835Z,10.34
2019-04-10T02:02:39.195Z,10.29
2019-04-10T02:05:08.171Z,10.18
2019-04-10T02:07:36.815Z,10.14
2019-04-10T02:10:07.895Z,10.19
2019-04-10T02:12:38.857Z,10.18
2019-04-10T02:15:11.231Z,10.17
2019-04-10T02:17:38.989Z,10.01
2019-04-10T02:20:09.047Z,10.14
2019-04-10T02:22:38.445Z,10.07
2019-04-10T02:25:07.642Z,10.14
2019-04-10T02:27:37.222Z,10.12
2019-04-10T02:30:10.371Z,10.08
2019-04-10T02:32:41.139Z,10.14
2019-04-10T02:35:13.211Z,10.11
2019-04-10T02:37:43.391Z,10.15
2019-04-10T02:40:16.940Z,10.14
2019-04-10T02:42:47.377Z,10.18
2019-04-10T02:45:17.131Z,10.03
2019-04-10T02:47:47.477Z,10.08
2019-04-10T02:50:18.792Z,10.17
2019-04-10T02:52:50.112Z,10.24
2019-04-10T02:55:18.661Z,10.16
2019-04-10T02:57:49.842Z,10.24
2019-04-10T03:00:20.331Z,10.23
2019-04-10T03:02:52.035Z,10.24
2019-04-10T03:05:22.989Z,10.17
2019-04-10T03:07:52.632Z,10.21
2019-04-10T03:10:34.051Z,10.25
2019-04-10T03:12:56.397Z,10.22
2019-04-10T03:15:25.378Z,10.14
2019-04-10T03:17:55.222Z,10.14
2019-04-10T03:20:24.652Z,10.09
2019-04-10T03:22:53.486Z,10.09
2019-04-10T03:25:24.583Z,10.08
2019-04-10T03:27:54.392Z,10.04
2019-04-10T03:30:23.710Z,10.07
2019-04-10T03:33:00.911Z,10.05
2019-04-10T03:35:32.806Z,10.02
2019-04-10T03:38:01.617Z,10.00
2019-04-10T03:40:31.270Z,9.99
2019-04-10T03:42:59.972Z,9.96
2019-04-10T03:45:28.637Z,9.96
2019-04-10T03:47:58.015Z,9.96
2019-04-10T03:50:29.963Z,9.93
2019-04-10T03:53:05.513Z,9.95
2019-04-10T03:55:34.850Z,9.97
2019-04-10T03:58:03.505Z,10.01
2019-04-10T04:00:34.166Z,10.01
2019-04-10T04:03:06.500Z,9.91
2019-04-10T04:05:37.745Z,9.95
2019-04-10T04:08:07.483Z,9.90
2019-04-10T04:10:37.097Z,9.92
2019-04-10T04:13:07.422Z,9.95
2019-04-10T04:15:36.204Z,10.05
2019-04-10T04:18:04.831Z,10.05
2019-04-10T04:20:34.937Z,10.05
2019-04-10T04:23:03.674Z,10.17
2019-04-10T04:25:34.912Z,10.07
2019-04-10T04:28:04.556Z,10.14
2019-04-10T04:30:34.086Z,10.17
2019-04-10T04:33:02.854Z,10.08
2019-04-10T04:35:31.829Z,10.10
2019-04-10T04:38:00.519Z,10.12
2019-04-10T04:40:30.026Z,10.10
2019-04-10T04:42:58.737Z,10.10
2019-04-10T04:45:27.852Z,10.10
2019-04-10T04:47:57.584Z,10.09
2019-04-10T04:50:27.037Z,10.07
2019-04-10T04:52:56.007Z,10.18
2019-04-10T04:55:24.628Z,10.16
2019-04-10T04:57:53.560Z,10.11
2019-04-10T05:00:23.617Z,10.23
2019-04-10T05:02:53.444Z,10.17
2019-04-10T05:05:23.006Z,10.24
2019-04-10T05:07:59.264Z,10.24
2019-04-10T05:10:22.916Z,10.24
2019-04-10T05:12:55.789Z,10.24
2019-04-10T05:15:26.998Z,10.22
2019-04-10T05:17:57.634Z,10.30
2019-04-10T05:20:38.778Z,10.30
2019-04-10T05:22:57.624Z,10.30
2019-04-10T05:25:27.316Z,10.39
2019-04-10T05:27:56.188Z,10.35
2019-04-10T05:30:27.208Z,10.43
2019-04-10T05:32:56.060Z,10.42
2019-04-10T05:35:25.722Z,10.44
2019-04-10T05:37:58.265Z,10.53
2019-04-10T05:40:28.008Z,10.57
2019-04-10T05:42:59.595Z,10.46
2019-04-10T05:45:31.834Z,10.47
2019-04-10T05:48:01.187Z,10.52
2019-04-10T05:50:30.033Z,10.31
2019-04-10T05:53:02.319Z,10.58
2019-04-10T05:55:34.555Z,10.65
2019-04-10T05:58:03.378Z,10.70
2019-04-10T06:00:34.533Z,10.69
2019-04-10T06:03:06.130Z,10.73
2019-04-10T06:05:35.100Z,10.76
2019-04-10T06:08:03.904Z,10.85
2019-04-10T06:10:35.446Z,10.81
2019-04-10T06:13:04.096Z,10.96
2019-04-10T06:15:32.948Z,11.07
2019-04-10T06:18:03.258Z,11.05
2019-04-10T06:20:33.434Z,11.15
2019-04-10T06:23:03.240Z,11.33
2019-04-10T06:25:35.368Z,11.40
2019-04-10T06:28:05.326Z,11.44
2019-04-10T06:30:34.132Z,11.39
2019-04-10T06:33:04.043Z,11.36
2019-04-10T06:35:37.767Z,11.36
2019-04-10T06:38:06.866Z,11.33
2019-04-10T06:40:39.893Z,11.28
2019-04-10T06:43:10.143Z,11.32
2019-04-10T06:45:43.996Z,11.36
2019-04-10T06:48:15.542Z,11.41
2019-04-10T06:50:44.805Z,11.37
2019-04-10T06:53:16.212Z,11.47
2019-04-10T06:55:44.995Z,11.53
2019-04-10T06:58:15.768Z,11.55
2019-04-10T07:00:48.606Z,11.60
2019-04-10T07:03:14.953Z,11.64
2019-04-10T07:05:59.734Z,11.66
2019-04-10T07:08:17.266Z,11.67
2019-04-10T07:10:53.644Z,11.60
2019-04-10T07:13:17.981Z,11.60
2019-04-10T07:15:49.651Z,11.59
2019-04-10T07:18:20.669Z,11.60
2019-04-10T07:20:51.098Z,11.61
2019-04-10T07:23:25.837Z,11.64
2019-04-10T07:25:52.039Z,11.58
2019-04-10T07:28:21.550Z,11.56
2019-04-10T07:30:52.066Z,11.53
2019-04-10T07:33:21.392Z,11.48
2019-04-10T07:35:54.841Z,11.49
2019-04-10T07:38:22.751Z,11.49
2019-04-10T07:40:51.912Z,11.49
2019-04-10T07:43:24.516Z,11.53
2019-04-10T07:45:51.249Z,11.59
2019-04-10T07:48:20.529Z,11.63
2019-04-10T07:50:49.184Z,11.67
2019-04-10T07:53:18.883Z,11.65
2019-04-10T07:55:58.443Z,11.67
2019-04-10T07:58:19.408Z,11.67
2019-04-10T08:00:49.735Z,11.68
2019-04-10T08:03:18.886Z,11.72
2019-04-10T08:05:48.173Z,11.78
2019-04-10T08:08:17.199Z,11.83
2019-04-10T08:10:48.828Z,11.85
2019-04-10T08:13:19.101Z,11.90
2019-04-10T08:15:47.929Z,11.90
2019-04-10T08:18:18.961Z,11.91
2019-04-10T08:20:49.425Z,11.95
2019-04-10T08:23:19.798Z,11.97
2019-04-10T08:25:50.037Z,12.01
2019-04-10T08:28:20.099Z,11.93
2019-04-10T08:30:48.829Z,11.92
2019-04-10T08:33:17.577Z,11.97
2019-04-10T08:35:47.394Z,11.94
2019-04-10T08:38:17.270Z,11.82
2019-04-10T08:40:46.271Z,11.86
2019-04-10T08:43:15.837Z,11.98
2019-04-10T08:45:48.459Z,12.04
2019-04-10T08:48:17.687Z,12.04
2019-04-10T08:50:50.331Z,12.06
2019-04-10T08:53:20.114Z,12.13
2019-04-10T08:55:48.869Z,12.17
2019-04-10T08:58:18.742Z,12.08
2019-04-10T09:00:47.467Z,12.45
2019-04-10T09:03:17.001Z,12.38
2019-04-10T09:05:46.888Z,12.58
2019-04-10T09:08:15.398Z,12.63
2019-04-10T09:10:44.800Z,12.60
2019-04-10T09:13:14.535Z,12.70
2019-04-10T09:15:43.276Z,12.76
2019-04-10T09:18:12.844Z,12.78
2019-04-10T09:20:42.478Z,13.07
2019-04-10T09:23:29.739Z,13.06
2019-04-10T09:25:41.731Z,13.37
2019-04-10T09:28:10.612Z,13.42
2019-04-10T09:30:39.147Z,13.60
2019-04-10T09:33:18.698Z,13.42
2019-04-10T09:35:38.485Z,13.67
2019-04-10T09:38:07.301Z,13.93
2019-04-10T09:40:36.300Z,14.02
2019-04-10T09:43:05.187Z,14.28
2019-04-10T09:45:34.968Z,14.58
2019-04-10T09:48:06.362Z,14.27
2019-04-10T09:50:35.498Z,14.46
2019-04-10T09:53:04.391Z,14.25
2019-04-10T09:55:33.094Z,14.22
2019-04-10T09:58:10.404Z,14.56
2019-04-10T10:00:40.226Z,14.66
2019-04-10T10:03:09.792Z,14.68
2019-04-10T10:05:39.117Z,14.82
2019-04-10T10:08:09.099Z,14.78
2019-04-10T10:10:39.853Z,14.67
2019-04-10T10:13:13.065Z,14.86
2019-04-10T10:15:43.104Z,14.54
2019-04-10T10:18:12.949Z,14.53
2019-04-10T10:20:41.811Z,14.71
2019-04-10T10:23:13.741Z,14.76
2019-04-10T10:25:43.560Z,14.60
2019-04-10T10:28:13.209Z,14.69
2019-04-10T10:30:41.874Z,14.94
2019-04-10T10:33:10.538Z,14.86
2019-04-10T10:35:39.358Z,14.91
2019-04-10T10:38:10.967Z,15.11
2019-04-10T10:40:39.687Z,15.05
2019-04-10T11:52:53.450Z,18.67
2019-04-10T11:55:25.366Z,18.93
2019-04-10T12:16:47.343Z,19.22
2019-04-10T12:19:16.012Z,19.68
2019-04-10T12:21:44.602Z,19.86
2019-04-10T12:24:14.057Z,20.22
2019-04-10T12:26:42.802Z,20.62
2019-04-10T12:29:11.436Z,20.98
2019-04-10T12:31:40.203Z,20.54
2019-04-10T12:34:08.893Z,21.00
2019-04-10T12:36:38.478Z,22.14
2019-04-10T12:39:12.081Z,23.37
2019-04-10T12:41:41.637Z,24.74
2019-04-10T12:44:11.593Z,25.55
2019-04-10T12:46:41.428Z,25.04
2019-04-10T12:49:10.553Z,24.99
2019-04-10T12:51:40.179Z,24.88
2019-04-10T12:54:09.941Z,24.79
2019-04-10T12:56:38.584Z,25.75
2019-04-10T12:59:07.258Z,27.08
2019-04-10T13:01:36.587Z,28.84
2019-04-10T13:04:05.479Z,30.63
2019-04-10T13:06:37.962Z,32.36
2019-04-10T13:09:12.015Z,33.08
2019-04-10T13:11:37.839Z,31.56
2019-04-10T13:14:09.145Z,29.81
2019-04-10T13:16:38.431Z,28.45
2019-04-10T13:19:07.074Z,27.45
2019-04-10T13:21:36.792Z,27.22
2019-04-10T13:24:05.687Z,26.74
2019-04-10T13:26:34.315Z,25.67
2019-04-10T13:29:03.639Z,25.26
2019-04-10T13:31:33.163Z,25.26
2019-04-10T13:34:02.786Z,25.07
2019-04-10T13:36:31.468Z,24.44
2019-04-10T13:39:00.293Z,24.16
2019-04-10T13:41:29.031Z,23.39
2019-04-10T13:43:58.164Z,22.86
2019-04-10T13:46:26.911Z,22.04
2019-04-10T13:48:55.586Z,21.60
2019-04-10T13:51:24.186Z,20.60
2019-04-10T13:53:52.817Z,20.50
2019-04-10T13:56:21.461Z,20.36
2019-04-10T13:58:50.810Z,20.29
2019-04-10T14:01:21.094Z,20.41
2019-04-10T14:03:50.370Z,20.40
2019-04-10T14:06:19.289Z,20.28
2019-04-10T14:09:03.105Z,20.40
2019-04-10T14:11:19.148Z,20.13
2019-04-10T14:13:48.374Z,20.33
2019-04-10T14:16:17.017Z,20.31
2019-04-10T14:18:45.779Z,19.81
2019-04-10T14:21:16.056Z,19.60
2019-04-10T14:23:45.261Z,19.69
2019-04-10T14:26:22.267Z,19.43
2019-04-10T14:28:51.502Z,18.89
2019-04-10T14:31:28.691Z,19.18
2019-04-10T14:33:58.401Z,19.36
2019-04-10T14:36:27.718Z,19.36
2019-04-10T14:39:09.450Z,18.77
2019-04-10T14:41:29.636Z,18.93
2019-04-10T14:43:58.326Z,18.96
2019-04-10T14:46:26.927Z,19.19
2019-04-10T14:48:56.570Z,20.12
2019-04-10T14:51:25.325Z,21.68
2019-04-10T14:53:53.888Z,22.27
2019-04-10T14:56:22.563Z,21.85
2019-04-10T14:58:51.091Z,20.88
2019-04-10T15:01:19.903Z,20.04
2019-04-10T15:03:48.778Z,19.64
2019-04-10T15:06:20.046Z,19.08
2019-04-10T15:08:48.814Z,18.29
2019-04-10T15:11:18.316Z,17.63
2019-04-10T15:13:47.099Z,16.79
2019-04-10T15:16:16.783Z,16.48
2019-04-10T15:18:45.813Z,16.40
2019-04-10T15:21:14.537Z,16.31
2019-04-10T15:23:43.108Z,16.18
2019-04-10T15:26:11.672Z,16.06
2019-04-10T15:28:46.082Z,15.88
2019-04-10T15:31:15.167Z,15.81
2019-04-10T15:33:44.495Z,15.68
2019-04-10T15:36:15.907Z,15.55
2019-04-10T15:38:48.557Z,15.53
2019-04-10T15:41:17.285Z,15.49
2019-04-10T15:43:49.718Z,15.25
2019-04-10T15:46:19.169Z,15.36
2019-04-10T15:48:50.796Z,14.99
2019-04-10T15:51:20.421Z,15.07
2019-04-10T15:53:49.433Z,15.27
2019-04-10T15:56:19.308Z,15.28
2019-04-10T15:58:48.271Z,15.10
2019-04-10T16:01:18.522Z,15.15
2019-04-10T16:03:47.251Z,14.98
2019-04-10T16:06:15.872Z,14.99
2019-04-10T16:08:44.844Z,15.00
2019-04-10T16:11:15.144Z,14.72
2019-04-10T16:13:46.361Z,14.85
2019-04-10T16:16:34.672Z,14.95
2019-04-10T16:19:10.645Z,14.91
2019-04-10T16:21:42.105Z,14.51
2019-04-10T16:24:14.886Z,14.45
2019-04-10T16:26:43.576Z,14.68
2019-04-10T16:29:12.208Z,14.32
2019-04-10T16:31:40.787Z,14.21
2019-04-10T16:34:09.456Z,14.30
2019-04-10T16:36:38.022Z,14.57
2019-04-10T16:39:11.305Z,14.29
2019-04-10T16:41:39.956Z,14.35
2019-04-10T16:44:08.841Z,14.24
2019-04-10T16:46:38.338Z,14.06
2019-04-10T16:49:07.119Z,14.15
2019-04-10T16:51:36.563Z,14.40
2019-04-10T16:54:06.280Z,14.08
2019-04-10T16:56:35.923Z,14.30
2019-04-10T16:59:04.685Z,14.32
2019-04-10T17:01:33.338Z,14.31
2019-04-10T17:04:02.783Z,14.08
2019-04-10T17:06:32.492Z,14.19
2019-04-10T17:09:04.777Z,14.18
2019-04-10T17:11:33.508Z,14.30
2019-04-10T17:14:02.733Z,14.19
2019-04-10T17:16:31.523Z,13.93
2019-04-10T17:19:00.047Z,14.04
2019-04-10T17:21:30.741Z,13.98
2019-04-10T17:23:59.000Z,13.95
2019-04-10T17:26:27.678Z,13.91
2019-04-10T17:28:56.652Z,13.91
2019-04-10T17:31:26.538Z,13.95
2019-04-10T17:33:56.527Z,13.94
2019-04-10T17:36:25.381Z,14.02
2019-04-10T17:38:56.711Z,13.90
2019-04-10T17:41:26.048Z,13.79
2019-04-10T17:43:54.685Z,13.80
2019-04-10T17:46:23.198Z,13.64
2019-04-10T17:48:51.981Z,13.62
2019-04-10T17:51:21.968Z,13.74
2019-04-10T17:53:50.641Z,13.67
2019-04-10T17:56:22.316Z,13.73
2019-04-10T17:58:51.991Z,13.59
2019-04-10T18:01:23.010Z,13.78
2019-04-10T18:03:56.603Z,13.80
2019-04-10T18:06:25.583Z,13.78
2019-04-10T18:08:54.332Z,13.86
2019-04-10T18:11:22.885Z,13.84
2019-04-10T18:13:51.519Z,13.60
2019-04-10T18:16:20.163Z,13.48
2019-04-10T18:18:48.728Z,13.40
2019-04-10T18:21:17.432Z,13.43
2019-04-10T18:23:47.284Z,13.29
2019-04-10T18:26:20.571Z,13.45
2019-04-10T18:28:47.828Z,13.48
2019-04-10T18:31:16.674Z,13.50
2019-04-10T18:33:45.305Z,13.45
2019-04-10T18:36:13.991Z,13.28
2019-04-10T18:38:43.790Z,13.28
2019-04-10T18:41:13.705Z,13.11
2019-04-10T18:43:42.585Z,13.08
2019-04-10T18:46:14.746Z,13.06
2019-04-10T18:48:44.205Z,12.97
2019-04-10T18:51:12.566Z,12.83
2019-04-10T18:53:42.531Z,12.51
2019-04-10T18:56:11.622Z,12.57
2019-04-10T18:58:41.873Z,12.72
2019-04-10T19:01:14.279Z,12.70
2019-04-10T19:06:27.490Z,12.43
2019-04-10T19:09:07.705Z,12.39
2019-04-10T19:11:31.681Z,12.34
2019-04-10T19:13:59.651Z,12.41
2019-04-10T19:16:29.820Z,12.29
2019-04-10T19:18:59.747Z,12.22
2019-04-10T19:21:29.355Z,12.17
2019-04-10T19:23:58.082Z,12.26
2019-04-10T19:26:27.386Z,12.16
2019-04-10T19:28:57.114Z,12.14
2019-04-10T19:31:27.748Z,12.09
2019-04-10T19:33:56.979Z,12.00
2019-04-10T19:36:25.901Z,11.89
2019-04-10T19:38:54.531Z,11.57
2019-04-10T19:41:29.713Z,11.40
2019-04-10T19:43:54.681Z,11.42
2019-04-10T19:46:23.820Z,11.40
2019-04-10T19:48:53.540Z,11.12
2019-04-10T19:51:22.240Z,11.03
2019-04-10T19:53:51.224Z,11.09
2019-04-10T19:56:20.244Z,11.14
2019-04-10T19:58:48.742Z,11.07
2019-04-10T20:01:17.377Z,10.80
2019-04-10T20:03:45.991Z,10.61
2019-04-10T20:06:14.595Z,10.50
2019-04-10T20:08:43.978Z,10.42
2019-04-10T20:11:15.397Z,10.38
2019-04-10T20:13:44.948Z,10.41
2019-04-10T20:16:13.765Z,10.46
2019-04-10T20:18:43.190Z,10.54
2019-04-10T20:21:12.107Z,10.48
2019-04-10T20:23:40.680Z,10.54
2019-04-10T20:26:18.863Z,10.61
2019-04-10T20:28:47.515Z,10.61
2019-04-10T20:31:21.331Z,10.51
2019-04-10T20:33:49.956Z,10.43
2019-04-10T20:36:18.692Z,10.46
2019-04-10T20:38:48.346Z,10.40
2019-04-10T20:41:19.638Z,10.36
2019-04-10T20:43:48.266Z,10.27
2019-04-10T20:46:18.038Z,10.24
2019-04-10T20:48:46.763Z,10.23
2019-04-10T20:51:16.522Z,10.21
2019-04-10T20:53:46.262Z,10.10
2019-04-10T20:56:16.884Z,10.05
2019-04-10T20:58:45.315Z,10.05
2019-04-10T21:01:14.527Z,10.05
2019-04-10T21:03:43.175Z,10.03
2019-04-10T21:06:15.311Z,10.08
2019-04-10T21:08:44.651Z,10.03
2019-04-10T21:11:13.865Z,9.73
2019-04-10T21:13:42.738Z,9.52
2019-04-10T21:16:11.455Z,9.54
2019-04-10T21:18:40.380Z,9.51
2019-04-10T21:21:10.202Z,9.51
2019-04-10T21:23:39.938Z,9.43
2019-04-10T21:26:08.734Z,9.29
2019-04-10T21:28:37.271Z,9.25
2019-04-10T21:31:23.687Z,9.26
2019-04-10T21:34:03.403Z,9.31
2019-04-10T21:36:32.832Z,9.39
2019-04-10T21:39:01.438Z,9.36
2019-04-10T21:41:30.618Z,9.43
2019-04-10T21:44:00.271Z,9.56
2019-04-10T21:46:28.824Z,9.46
2019-04-10T21:48:57.437Z,9.39
2019-04-10T21:51:25.998Z,9.48
2019-04-10T21:53:54.537Z,9.56
2019-04-10T21:56:24.436Z,9.73
2019-04-10T21:58:53.069Z,9.80
2019-04-10T22:01:21.995Z,10.05
2019-04-10T22:03:50.596Z,10.11
2019-04-10T22:06:28.040Z,10.09
2019-04-10T22:09:14.891Z,10.16
2019-04-10T22:11:45.614Z,10.18
2019-04-10T22:14:15.103Z,10.15
2019-04-10T22:16:44.356Z,10.19
2019-04-10T22:19:13.002Z,10.17
2019-04-10T22:21:41.935Z,10.05
2019-04-10T22:24:11.586Z,10.03
2019-04-10T22:26:44.479Z,10.04
2019-04-10T22:29:14.162Z,10.08
2019-04-10T22:31:43.779Z,10.09
2019-04-10T22:34:13.646Z,10.13
2019-04-10T22:36:42.309Z,10.22
2019-04-10T22:39:12.681Z,10.19
2019-04-10T22:41:41.369Z,10.11
2019-04-10T22:44:10.056Z,10.07
2019-04-10T22:46:38.893Z,10.12
2019-04-10T22:49:08.380Z,10.18
2019-04-10T22:51:37.712Z,10.03
2019-04-10T22:54:06.370Z,10.14
2019-04-10T22:56:35.771Z,10.17
2019-04-10T22:59:04.386Z,10.30
2019-04-10T23:01:33.401Z,10.30
2019-04-10T23:04:02.125Z,10.34
2019-04-10T23:06:31.391Z,10.51
2019-04-10T23:09:00.190Z,10.47
2019-04-10T23:11:34.918Z,10.37
2019-04-10T23:13:59.074Z,10.12
2019-04-10T23:16:28.359Z,9.98
2019-04-10T23:18:58.159Z,10.11
2019-04-10T23:21:26.829Z,10.24
2019-04-10T23:23:55.512Z,10.29
2019-04-10T23:26:24.925Z,10.26
2019-04-10T23:28:53.791Z,10.02
2019-04-10T23:31:22.266Z,10.00
2019-04-10T23:33:50.833Z,9.91
2019-04-10T23:36:20.218Z,9.99
2019-04-10T23:38:49.922Z,9.96
2019-04-10T23:41:18.627Z,9.88
2019-04-10T23:43:48.171Z,9.89
2019-04-10T23:46:17.969Z,9.95
2019-04-10T23:48:46.880Z,10.15
2019-04-10T23:51:15.396Z,10.22
2019-04-10T23:53:44.791Z,10.17
2019-04-10T23:56:13.681Z,10.10
2019-04-10T23:58:42.439Z,10.02
